sensor_id;sensor_type;location;lat;lon;timestamp;P1;durP1;ratioP1;P2;durP2;ratioP2
1887;SDS011;944;51.574;6.980;2023-03-01T07:50:49;15.90;;;9.93;;
1887;SDS011;944;51.574;6.980;2023-03-01T07:57:09;15.63;;;9.10;;
1887;SDS011;944;51.574;6.980;2023-03-01T07:59:57;14.00;;;9.03;;
1887;SDS011;944;51.574;6.980;2023-03-01T08:02:38;15.40;;;9.50;;
1887;SDS011;944;51.574;6.980;2023-03-01T08:09:03;14.20;;;9.47;;
1887;SDS011;944;51.574;6.980;2023-03-01T08:11:32;17.03;;;9.63;;
1887;SDS011;944;51.574;6.980;2023-03-01T08:14:15;14.60;;;9.30;;
1887;SDS011;944;51.574;6.980;2023-03-01T08:16:50;15.50;;;9.50;;
1887;SDS011;944;51.574;6.980;2023-03-01T08:22:03;19.00;;;10.20;;
1887;SDS011;944;51.574;6.980;2023-03-01T08:24:30;16.03;;;9.43;;
1887;SDS011;944;51.574;6.980;2023-03-01T08:26:59;16.80;;;9.53;;
1887;SDS011;944;51.574;6.980;2023-03-01T08:29:37;19.23;;;10.47;;
1887;SDS011;944;51.574;6.980;2023-03-01T08:32:13;22.80;;;10.60;;
1887;SDS011;944;51.574;6.980;2023-03-01T08:34:41;18.57;;;10.03;;
1887;SDS011;944;51.574;6.980;2023-03-01T08:37:12;17.53;;;10.20;;
1887;SDS011;944;51.574;6.980;2023-03-01T08:39:39;19.10;;;10.13;;
1887;SDS011;944;51.574;6.980;2023-03-01T08:45:23;14.80;;;9.13;;
1887;SDS011;944;51.574;6.980;2023-03-01T08:47:51;14.60;;;8.93;;
1887;SDS011;944;51.574;6.980;2023-03-01T08:50:20;13.20;;;9.07;;
1887;SDS011;944;51.574;6.980;2023-03-01T08:52:52;28.30;;;9.10;;
1887;SDS011;944;51.574;6.980;2023-03-01T08:55:21;13.17;;;8.93;;
1887;SDS011;944;51.574;6.980;2023-03-01T08:57:50;13.73;;;8.60;;
1887;SDS011;944;51.574;6.980;2023-03-01T09:00:20;18.80;;;9.10;;
1887;SDS011;944;51.574;6.980;2023-03-01T09:02:51;15.27;;;9.13;;
1887;SDS011;944;51.574;6.980;2023-03-01T09:08:36;12.30;;;8.00;;
1887;SDS011;944;51.574;6.980;2023-03-01T09:11:12;24.07;;;8.93;;
1887;SDS011;944;51.574;6.980;2023-03-01T09:13:41;16.73;;;9.23;;
1887;SDS011;944;51.574;6.980;2023-03-01T09:16:08;14.40;;;8.00;;
1887;SDS011;944;51.574;6.980;2023-03-01T09:18:38;16.50;;;8.93;;
1887;SDS011;944;51.574;6.980;2023-03-01T09:21:06;14.77;;;8.90;;
1887;SDS011;944;51.574;6.980;2023-03-01T09:23:36;12.33;;;8.27;;
1887;SDS011;944;51.574;6.980;2023-03-01T09:26:04;12.80;;;7.73;;
1887;SDS011;944;51.574;6.980;2023-03-01T09:28:31;13.50;;;8.20;;
1887;SDS011;944;51.574;6.980;2023-03-01T09:34:07;13.07;;;8.23;;
1887;SDS011;944;51.574;6.980;2023-03-01T09:36:35;11.33;;;7.70;;
1887;SDS011;944;51.574;6.980;2023-03-01T09:39:04;10.17;;;7.10;;
1887;SDS011;944;51.574;6.980;2023-03-01T09:44:42;16.43;;;7.17;;
1887;SDS011;944;51.574;6.980;2023-03-01T09:47:17;16.97;;;7.97;;
1887;SDS011;944;51.574;6.980;2023-03-01T09:49:57;13.10;;;7.67;;
1887;SDS011;944;51.574;6.980;2023-03-01T09:52:30;13.63;;;7.60;;
1887;SDS011;944;51.574;6.980;2023-03-01T09:55:08;11.50;;;8.20;;
1887;SDS011;944;51.574;6.980;2023-03-01T09:57:59;13.70;;;7.57;;
1887;SDS011;944;51.574;6.980;2023-03-01T10:00:43;19.33;;;7.37;;
1887;SDS011;944;51.574;6.980;2023-03-01T10:03:15;14.40;;;7.70;;
1887;SDS011;944;51.574;6.980;2023-03-01T10:05:49;14.57;;;6.83;;
1887;SDS011;944;51.574;6.980;2023-03-01T10:11:56;12.93;;;7.50;;
1887;SDS011;944;51.574;6.980;2023-03-01T10:14:32;15.07;;;8.03;;
1887;SDS011;944;51.574;6.980;2023-03-01T10:17:12;10.83;;;6.93;;
1887;SDS011;944;51.574;6.980;2023-03-01T10:23:00;14.93;;;7.50;;
1887;SDS011;944;51.574;6.980;2023-03-01T10:25:36;12.47;;;7.73;;
1887;SDS011;944;51.574;6.980;2023-03-01T10:28:20;12.57;;;8.07;;
1887;SDS011;944;51.574;6.980;2023-03-01T10:30:57;13.20;;;8.10;;
1887;SDS011;944;51.574;6.980;2023-03-01T10:33:29;14.77;;;8.10;;
1887;SDS011;944;51.574;6.980;2023-03-01T10:35:59;10.73;;;7.70;;
1887;SDS011;944;51.574;6.980;2023-03-01T10:42:17;11.30;;;7.57;;
1887;SDS011;944;51.574;6.980;2023-03-01T10:44:53;10.83;;;7.40;;
1887;SDS011;944;51.574;6.980;2023-03-01T10:47:21;14.20;;;8.60;;
1887;SDS011;944;51.574;6.980;2023-03-01T10:49:58;14.17;;;8.40;;
1887;SDS011;944;51.574;6.980;2023-03-01T10:52:55;17.07;;;8.37;;
1887;SDS011;944;51.574;6.980;2023-03-01T10:55:27;20.77;;;8.40;;
1887;SDS011;944;51.574;6.980;2023-03-01T10:58:15;11.53;;;7.43;;
1887;SDS011;944;51.574;6.980;2023-03-01T11:00:50;11.30;;;7.67;;
1887;SDS011;944;51.574;6.980;2023-03-01T11:10:41;13.10;;;7.83;;
1887;SDS011;944;51.574;6.980;2023-03-01T11:13:19;12.17;;;7.60;;
1887;SDS011;944;51.574;6.980;2023-03-01T11:16:02;14.87;;;8.57;;
1887;SDS011;944;51.574;6.980;2023-03-01T11:18:47;16.43;;;7.67;;
1887;SDS011;944;51.574;6.980;2023-03-01T11:21:32;22.57;;;7.97;;
1887;SDS011;944;51.574;6.980;2023-03-01T11:24:41;9.90;;;7.10;;
1887;SDS011;944;51.574;6.980;2023-03-01T11:27:23;15.33;;;7.67;;
1887;SDS011;944;51.574;6.980;2023-03-01T11:33:49;14.50;;;7.53;;
1887;SDS011;944;51.574;6.980;2023-03-01T11:36:27;13.13;;;7.83;;
1887;SDS011;944;51.574;6.980;2023-03-01T11:39:12;19.90;;;7.37;;
1887;SDS011;944;51.574;6.980;2023-03-01T11:44:52;12.90;;;7.90;;
1887;SDS011;944;51.574;6.980;2023-03-01T11:47:45;12.70;;;7.50;;
1887;SDS011;944;51.574;6.980;2023-03-01T11:54:10;13.47;;;7.77;;
1887;SDS011;944;51.574;6.980;2023-03-01T11:57:20;15.20;;;7.93;;
1887;SDS011;944;51.574;6.980;2023-03-01T12:00:15;10.40;;;7.03;;
1887;SDS011;944;51.574;6.980;2023-03-01T12:03:30;9.90;;;6.57;;
1887;SDS011;944;51.574;6.980;2023-03-01T12:12:52;15.37;;;7.50;;
1887;SDS011;944;51.574;6.980;2023-03-01T12:16:10;10.93;;;7.63;;
1887;SDS011;944;51.574;6.980;2023-03-01T12:22:40;12.10;;;7.57;;
1887;SDS011;944;51.574;6.980;2023-03-01T12:33:05;16.63;;;6.83;;
1887;SDS011;944;51.574;6.980;2023-03-01T12:35:50;13.33;;;8.33;;
1887;SDS011;944;51.574;6.980;2023-03-01T12:38:40;9.40;;;6.97;;
1887;SDS011;944;51.574;6.980;2023-03-01T12:41:12;11.53;;;6.77;;
1887;SDS011;944;51.574;6.980;2023-03-01T12:44:15;10.47;;;6.83;;
1887;SDS011;944;51.574;6.980;2023-03-01T12:47:06;10.20;;;6.50;;
1887;SDS011;944;51.574;6.980;2023-03-01T12:49:46;10.20;;;7.20;;
1887;SDS011;944;51.574;6.980;2023-03-01T12:55:42;10.23;;;6.50;;
1887;SDS011;944;51.574;6.980;2023-03-01T12:58:13;13.40;;;7.10;;
1887;SDS011;944;51.574;6.980;2023-03-01T13:00:56;11.17;;;7.23;;
1887;SDS011;944;51.574;6.980;2023-03-01T13:04:14;16.80;;;6.93;;
1887;SDS011;944;51.574;6.980;2023-03-01T13:06:56;13.00;;;7.43;;
1887;SDS011;944;51.574;6.980;2023-03-01T13:09:36;12.87;;;8.60;;
1887;SDS011;944;51.574;6.980;2023-03-01T13:15:33;13.40;;;7.70;;
1887;SDS011;944;51.574;6.980;2023-03-01T13:18:02;10.73;;;7.50;;
1887;SDS011;944;51.574;6.980;2023-03-01T13:21:14;8.20;;;6.70;;
1887;SDS011;944;51.574;6.980;2023-03-01T13:23:55;11.33;;;6.43;;
1887;SDS011;944;51.574;6.980;2023-03-01T13:26:42;12.37;;;6.67;;
1887;SDS011;944;51.574;6.980;2023-03-01T13:29:48;11.87;;;7.50;;
1887;SDS011;944;51.574;6.980;2023-03-01T13:32:19;15.63;;;7.90;;
1887;SDS011;944;51.574;6.980;2023-03-01T13:34:49;11.97;;;7.13;;
1887;SDS011;944;51.574;6.980;2023-03-01T13:37:31;10.73;;;7.43;;
1887;SDS011;944;51.574;6.980;2023-03-01T13:40:03;14.00;;;7.43;;
1887;SDS011;944;51.574;6.980;2023-03-01T13:47:06;12.10;;;7.63;;
1887;SDS011;944;51.574;6.980;2023-03-01T13:52:59;11.83;;;7.30;;
1887;SDS011;944;51.574;6.980;2023-03-01T13:59:13;14.83;;;8.27;;
1887;SDS011;944;51.574;6.980;2023-03-01T14:01:44;10.67;;;7.73;;
1887;SDS011;944;51.574;6.980;2023-03-01T14:04:22;13.10;;;8.63;;
1887;SDS011;944;51.574;6.980;2023-03-01T14:06:52;16.17;;;8.97;;
1887;SDS011;944;51.574;6.980;2023-03-01T14:09:37;18.37;;;9.20;;
1887;SDS011;944;51.574;6.980;2023-03-01T14:13:00;15.67;;;8.60;;
1887;SDS011;944;51.574;6.980;2023-03-01T14:15:49;16.10;;;8.93;;
1887;SDS011;944;51.574;6.980;2023-03-01T14:18:35;12.90;;;8.10;;
1887;SDS011;944;51.574;6.980;2023-03-01T14:24:44;24.40;;;9.23;;
1887;SDS011;944;51.574;6.980;2023-03-01T14:27:15;13.37;;;9.50;;
1887;SDS011;944;51.574;6.980;2023-03-01T14:29:47;12.83;;;8.50;;
1887;SDS011;944;51.574;6.980;2023-03-01T14:32:43;13.00;;;8.00;;
1887;SDS011;944;51.574;6.980;2023-03-01T14:35:22;13.00;;;9.07;;
1887;SDS011;944;51.574;6.980;2023-03-01T14:41:43;13.20;;;8.83;;
1887;SDS011;944;51.574;6.980;2023-03-01T14:44:14;14.20;;;8.67;;
1887;SDS011;944;51.574;6.980;2023-03-01T14:47:01;19.83;;;9.23;;
1887;SDS011;944;51.574;6.980;2023-03-01T14:53:22;13.93;;;8.20;;
1887;SDS011;944;51.574;6.980;2023-03-01T14:55:53;14.60;;;8.30;;
1887;SDS011;944;51.574;6.980;2023-03-01T14:58:25;9.63;;;7.30;;
1887;SDS011;944;51.574;6.980;2023-03-01T15:04:33;11.40;;;6.90;;
1887;SDS011;944;51.574;6.980;2023-03-01T15:07:00;18.00;;;8.30;;
1887;SDS011;944;51.574;6.980;2023-03-01T15:13:11;13.63;;;7.53;;
1887;SDS011;944;51.574;6.980;2023-03-01T15:15:51;12.30;;;7.27;;
1887;SDS011;944;51.574;6.980;2023-03-01T15:18:32;14.20;;;8.10;;
1887;SDS011;944;51.574;6.980;2023-03-01T15:24:46;12.83;;;7.70;;
1887;SDS011;944;51.574;6.980;2023-03-01T15:27:15;11.47;;;7.33;;
1887;SDS011;944;51.574;6.980;2023-03-01T15:32:30;24.30;;;8.30;;
1887;SDS011;944;51.574;6.980;2023-03-01T15:35:00;11.30;;;6.87;;
1887;SDS011;944;51.574;6.980;2023-03-01T15:42:02;13.83;;;8.23;;
1887;SDS011;944;51.574;6.980;2023-03-01T15:48:35;12.80;;;8.47;;
1887;SDS011;944;51.574;6.980;2023-03-01T15:51:34;14.73;;;8.80;;
1887;SDS011;944;51.574;6.980;2023-03-01T15:54:28;14.60;;;8.93;;
1887;SDS011;944;51.574;6.980;2023-03-01T15:56:57;12.50;;;8.60;;
1887;SDS011;944;51.574;6.980;2023-03-01T15:59:25;12.67;;;7.83;;
1887;SDS011;944;51.574;6.980;2023-03-01T16:02:20;19.47;;;8.33;;
1887;SDS011;944;51.574;6.980;2023-03-01T16:04:51;12.20;;;7.70;;
1887;SDS011;944;51.574;6.980;2023-03-01T16:07:22;14.00;;;8.57;;
1887;SDS011;944;51.574;6.980;2023-03-01T16:09:55;12.90;;;8.53;;
1887;SDS011;944;51.574;6.980;2023-03-01T16:16:17;13.53;;;8.60;;
1887;SDS011;944;51.574;6.980;2023-03-01T16:18:50;18.47;;;8.37;;
1887;SDS011;944;51.574;6.980;2023-03-01T16:21:23;23.10;;;8.87;;
1887;SDS011;944;51.574;6.980;2023-03-01T16:23:56;15.40;;;8.80;;
1887;SDS011;944;51.574;6.980;2023-03-01T16:29:25;13.63;;;8.67;;
1887;SDS011;944;51.574;6.980;2023-03-01T16:31:55;14.83;;;7.83;;
1887;SDS011;944;51.574;6.980;2023-03-01T16:34:32;13.53;;;8.13;;
1887;SDS011;944;51.574;6.980;2023-03-01T16:37:00;17.23;;;7.73;;
1887;SDS011;944;51.574;6.980;2023-03-01T16:39:30;13.53;;;7.60;;
1887;SDS011;944;51.574;6.980;2023-03-01T16:45:46;13.20;;;7.20;;
1887;SDS011;944;51.574;6.980;2023-03-01T16:48:21;14.80;;;7.37;;
1887;SDS011;944;51.574;6.980;2023-03-01T16:50:59;11.27;;;7.30;;
1887;SDS011;944;51.574;6.980;2023-03-01T16:53:34;11.17;;;6.90;;
1887;SDS011;944;51.574;6.980;2023-03-01T16:56:03;12.80;;;7.27;;
1887;SDS011;944;51.574;6.980;2023-03-01T16:58:36;11.90;;;7.30;;
1887;SDS011;944;51.574;6.980;2023-03-01T17:01:06;14.90;;;7.53;;
1887;SDS011;944;51.574;6.980;2023-03-01T17:03:48;9.93;;;6.90;;
1887;SDS011;944;51.574;6.980;2023-03-01T17:06:20;12.10;;;7.50;;
1887;SDS011;944;51.574;6.980;2023-03-01T17:08:51;11.53;;;6.93;;
1887;SDS011;944;51.574;6.980;2023-03-01T17:11:20;10.23;;;6.13;;
1887;SDS011;944;51.574;6.980;2023-03-01T17:13:53;14.63;;;8.17;;
1887;SDS011;944;51.574;6.980;2023-03-01T17:16:20;15.10;;;7.53;;
1887;SDS011;944;51.574;6.980;2023-03-01T17:18:53;14.77;;;6.87;;
1887;SDS011;944;51.574;6.980;2023-03-01T17:32:34;13.70;;;7.63;;
1887;SDS011;944;51.574;6.980;2023-03-01T17:35:25;16.40;;;7.57;;
1887;SDS011;944;51.574;6.980;2023-03-01T17:38:13;13.50;;;7.07;;
1887;SDS011;944;51.574;6.980;2023-03-01T17:41:38;11.13;;;7.33;;
1887;SDS011;944;51.574;6.980;2023-03-01T19:19:23;13.67;;;7.47;;
